Airfield :
LOGIN :

Register | Disclaimer

   EN    FR    IT 

 










Legend :    VFR   Marginal VFR   IFR   Intensive IFR   Very Intensive IFR
Visi :
Ceiling :
>= 8 km
>= 3000ft
5 to 8 km
1000 to 3000 ft
1500m to 5 km
500 to 1000 ft
800 to 1500m
200 to 500 ft
< 800m
< 200 ft
Symbols :   Thunderstorms  Fog  Heavy snow  Heavy precipitations  Wind > 20 kt
SIGMETs :     Misc.  Thunderstorms  Icing  Turbulence  Mountain Waves  Volcanic Ashes







- Airport Elevation : 423 ft
- IATA code : PIS
- Download approach charts


LFBI - Poitiers

CURRENT METAR :
  • 170530Z AUTO 20008KT 9999 OVC007/// 18/17 Q1019 BECMG BKN015

EXPIRED METARs :
  • 170500Z AUTO 19008KT 9999 OVC006/// 17/16 Q1020 TEMPO 4500 BR BECMG BKN015
  • 170430Z AUTO 20008KT 9999 OVC004/// 17/16 Q1020 TEMPO 4500 BR BECMG BKN015
  • 170400Z AUTO 21008KT 9999 OVC003/// 17/16 Q1020 TEMPO 4500 BR
  • 170330Z AUTO 20007KT 9000 OVC003/// 16/16 Q1019 TEMPO 4500 BR BKN005
  • 170300Z AUTO 20007KT 9999 OVC004/// 16/15 Q1020 TEMPO 4500 BR BKN005

TAF TAF LFBI
Valid from the 17 at 06:00 until the 18 at 06:00 UTC


170500Z 1706/1806 22010KT 9999 BKN005
BECMG 1706/1708 BKN015
BECMG 1712/1714 BKN040
BECMG 1722/1724 20004KT BKN010
PROB40
TEMPO 1800/1803 BKN007
PROB40
TEMPO 1803/1806 2500 -DZ BKN004
No reported NOTAMs for that airfield.



MET'MAP, your aeronautical weather chart ! - Copyright ORBIFLY December 2007 - Disclaimer

ORBIFLY MET'MAP TEAM :

Programming & Development : Alexandra Zaïnal
Concept & Development : Baudouin d'Aumeries
Co-Development & Prog : Marc-Olivier Méhu
Technical & hardware support : Manuel Goepfert

Contact : metmap@orbifly.com




SOURCES & CREDITS :

   NOAA